Terminal Aerodrome Forecast
Issued by NWS Wilmington, OH

Current Version | Previous Version | Text Only | Print | Product List | Glossary Off
Versions: 1 2 3 4 5 6 7 8 9 10 11 12 13 14 15 16 17 18 19 20 21

000
FTUS41 KILN 252325
TAFDAY
TAF
KDAY 252325Z 2600/2624 14010KT P6SM BKN150
     FM260500 12007KT P6SM VCSH OVC080
     FM261000 16008KT 6SM -SHRA OVC050
     FM261500 17010KT 4SM -SHRA OVC025
     FM261800 19010KT P6SM -SHRA VCTS OVC040CB
     FM262300 20009KT P6SM OVC050=

USA.gov is the U.S. government's official web portal to all federal, state and local government web resources and services.